createdAt,value
2019-02-15T00:00:54.485Z,16.57
2019-02-15T00:15:51.547Z,15.90
2019-02-15T00:30:51.519Z,15.75
2019-02-15T00:45:59.436Z,17.07
2019-02-15T01:00:57.284Z,16.45
2019-02-15T01:15:53.862Z,17.90
2019-02-15T01:30:55.152Z,15.25
2019-02-15T01:45:55.820Z,14.90
2019-02-15T02:00:50.967Z,14.70
2019-02-15T02:15:50.764Z,13.58
2019-02-15T02:30:52.365Z,14.18
2019-02-15T02:45:51.276Z,13.48
2019-02-15T03:00:51.207Z,13.50
2019-02-15T03:15:51.067Z,11.73
2019-02-15T03:30:50.703Z,10.88
2019-02-15T03:45:52.792Z,11.50
2019-02-15T04:00:52.636Z,10.78
2019-02-15T04:15:51.669Z,10.03
2019-02-15T04:30:53.595Z,10.75
2019-02-15T04:45:51.030Z,9.55
2019-02-15T05:00:51.548Z,10.05
2019-02-15T05:15:53.441Z,10.80
2019-02-15T05:30:50.846Z,13.25
2019-02-15T05:45:50.697Z,12.60
2019-02-15T06:00:57.286Z,14.47
2019-02-15T06:15:50.928Z,12.65
2019-02-15T06:30:51.056Z,11.68
2019-02-15T06:45:50.962Z,10.82
2019-02-15T07:15:50.501Z,9.53
2019-02-15T07:30:50.405Z,9.93
2019-02-15T07:45:51.709Z,4.45
2019-02-15T08:00:50.830Z,4.55
2019-02-15T08:15:52.196Z,4.70
2019-02-15T08:30:52.684Z,4.05
2019-02-15T08:45:49.488Z,3.05
2019-02-15T09:00:52.810Z,2.35
2019-02-15T09:15:50.813Z,3.62
2019-02-15T09:30:52.644Z,3.40
2019-02-15T09:45:50.761Z,3.35
2019-02-15T10:00:50.741Z,4.45
2019-02-15T10:15:52.203Z,3.20
2019-02-15T10:30:53.408Z,2.80
2019-02-15T10:45:51.411Z,2.67
2019-02-15T11:00:50.783Z,3.05
2019-02-15T11:15:50.789Z,3.70
2019-02-15T11:30:50.656Z,4.55
2019-02-15T11:45:50.555Z,4.50
2019-02-15T12:00:51.050Z,4.37
2019-02-15T12:15:51.340Z,3.70
2019-02-15T12:30:53.320Z,4.67
2019-02-15T12:45:51.247Z,4.85
2019-02-15T13:00:50.995Z,4.50
2019-02-15T13:15:51.160Z,3.72
2019-02-15T13:30:50.539Z,4.97
2019-02-15T13:45:50.936Z,3.50
2019-02-15T14:00:50.941Z,4.40
2019-02-15T14:15:51.295Z,4.10
2019-02-15T14:30:51.083Z,4.45
2019-02-15T14:45:51.027Z,5.47
2019-02-15T15:00:57.320Z,6.28
2019-02-15T15:15:51.528Z,7.55
2019-02-15T15:30:51.884Z,6.95
2019-02-15T15:45:51.345Z,6.45
2019-02-15T16:00:52.221Z,4.45
2019-02-15T16:15:50.854Z,4.67
2019-02-15T16:30:53.900Z,5.83
2019-02-15T16:45:51.800Z,6.40
2019-02-15T17:00:51.468Z,6.62
2019-02-15T17:15:51.232Z,5.95
2019-02-15T17:30:51.249Z,6.70
2019-02-15T17:45:53.342Z,7.95
2019-02-15T18:00:57.225Z,8.20
2019-02-15T18:15:51.147Z,9.05
2019-02-15T18:30:51.497Z,7.20
2019-02-15T19:00:50.953Z,10.80
2019-02-15T19:15:50.609Z,13.53
2019-02-15T19:30:50.489Z,9.90
2019-02-15T19:45:53.559Z,11.10
2019-02-15T20:00:51.068Z,10.70
2019-02-15T20:15:51.008Z,8.50
2019-02-15T20:30:55.971Z,9.70
2019-02-15T20:45:50.890Z,6.95
2019-02-15T21:15:50.901Z,7.45
2019-02-15T21:30:53.099Z,7.60
2019-02-15T21:45:51.557Z,7.85
2019-02-15T22:00:53.515Z,6.40
2019-02-15T22:15:51.401Z,6.28
2019-02-15T22:30:51.429Z,7.08
2019-02-15T22:45:50.765Z,6.45
2019-02-15T23:15:51.647Z,7.90
2019-02-15T23:30:51.472Z,7.62
2019-02-15T23:45:50.894Z,6.72
